sensor_id;sensor_type;location;lat;lon;timestamp;P1;durP1;ratioP1;P2;durP2;ratioP2
19903;SDS011;10114;50.970;4.962;2023-10-08T00:02:15;5.65;;;2.53;;
19903;SDS011;10114;50.970;4.962;2023-10-08T00:04:47;7.28;;;3.30;;
19903;SDS011;10114;50.970;4.962;2023-10-08T00:07:15;6.57;;;2.60;;
19903;SDS011;10114;50.970;4.962;2023-10-08T00:09:46;8.13;;;2.80;;
19903;SDS011;10114;50.970;4.962;2023-10-08T00:12:12;10.20;;;2.85;;
19903;SDS011;10114;50.970;4.962;2023-10-08T00:14:38;7.45;;;2.33;;
19903;SDS011;10114;50.970;4.962;2023-10-08T00:17:10;12.45;;;2.83;;
19903;SDS011;10114;50.970;4.962;2023-10-08T00:19:36;7.18;;;2.33;;
19903;SDS011;10114;50.970;4.962;2023-10-08T00:22:03;10.48;;;2.70;;
19903;SDS011;10114;50.970;4.962;2023-10-08T00:24:31;9.68;;;2.60;;
19903;SDS011;10114;50.970;4.962;2023-10-08T00:26:58;9.18;;;2.78;;
19903;SDS011;10114;50.970;4.962;2023-10-08T00:29:25;6.95;;;2.53;;
19903;SDS011;10114;50.970;4.962;2023-10-08T00:31:52;9.35;;;2.47;;
19903;SDS011;10114;50.970;4.962;2023-10-08T00:34:22;7.35;;;2.70;;
19903;SDS011;10114;50.970;4.962;2023-10-08T00:36:49;6.28;;;2.72;;
19903;SDS011;10114;50.970;4.962;2023-10-08T00:39:16;7.65;;;2.70;;
19903;SDS011;10114;50.970;4.962;2023-10-08T00:41:47;11.82;;;2.70;;
19903;SDS011;10114;50.970;4.962;2023-10-08T00:44:14;6.88;;;2.25;;
19903;SDS011;10114;50.970;4.962;2023-10-08T00:46:47;9.98;;;2.88;;
19903;SDS011;10114;50.970;4.962;2023-10-08T00:49:17;7.75;;;2.70;;
19903;SDS011;10114;50.970;4.962;2023-10-08T00:51:44;8.18;;;2.60;;
19903;SDS011;10114;50.970;4.962;2023-10-08T00:54:24;7.47;;;2.40;;
19903;SDS011;10114;50.970;4.962;2023-10-08T00:56:50;7.72;;;2.78;;
19903;SDS011;10114;50.970;4.962;2023-10-08T00:59:19;8.68;;;2.60;;
19903;SDS011;10114;50.970;4.962;2023-10-08T01:01:46;7.57;;;2.45;;
19903;SDS011;10114;50.970;4.962;2023-10-08T01:04:24;7.40;;;2.15;;
19903;SDS011;10114;50.970;4.962;2023-10-08T01:07:02;10.50;;;2.97;;
19903;SDS011;10114;50.970;4.962;2023-10-08T01:09:38;7.47;;;2.55;;
19903;SDS011;10114;50.970;4.962;2023-10-08T01:14:54;7.28;;;2.42;;
19903;SDS011;10114;50.970;4.962;2023-10-08T01:17:29;7.38;;;2.70;;
19903;SDS011;10114;50.970;4.962;2023-10-08T01:19:57;7.00;;;2.72;;
19903;SDS011;10114;50.970;4.962;2023-10-08T01:22:42;9.82;;;2.50;;
19903;SDS011;10114;50.970;4.962;2023-10-08T01:25:08;6.72;;;2.70;;
19903;SDS011;10114;50.970;4.962;2023-10-08T01:27:35;7.35;;;2.40;;
19903;SDS011;10114;50.970;4.962;2023-10-08T01:30:02;11.50;;;3.08;;
19903;SDS011;10114;50.970;4.962;2023-10-08T01:32:37;6.93;;;2.70;;
19903;SDS011;10114;50.970;4.962;2023-10-08T01:35:03;8.48;;;2.63;;
19903;SDS011;10114;50.970;4.962;2023-10-08T01:37:41;8.57;;;2.83;;
19903;SDS011;10114;50.970;4.962;2023-10-08T01:40:07;7.05;;;2.40;;
19903;SDS011;10114;50.970;4.962;2023-10-08T01:42:34;9.02;;;2.42;;
19903;SDS011;10114;50.970;4.962;2023-10-08T01:45:04;9.07;;;2.78;;
19903;SDS011;10114;50.970;4.962;2023-10-08T01:47:32;8.38;;;2.58;;
19903;SDS011;10114;50.970;4.962;2023-10-08T01:49:58;8.02;;;2.90;;
19903;SDS011;10114;50.970;4.962;2023-10-08T01:52:30;9.52;;;2.67;;
19903;SDS011;10114;50.970;4.962;2023-10-08T01:54:56;8.00;;;2.60;;
19903;SDS011;10114;50.970;4.962;2023-10-08T01:57:23;9.60;;;3.35;;
19903;SDS011;10114;50.970;4.962;2023-10-08T01:59:49;7.35;;;2.35;;
19903;SDS011;10114;50.970;4.962;2023-10-08T02:02:15;10.02;;;2.85;;
19903;SDS011;10114;50.970;4.962;2023-10-08T02:04:41;8.48;;;2.75;;
19903;SDS011;10114;50.970;4.962;2023-10-08T02:07:08;7.97;;;2.78;;
19903;SDS011;10114;50.970;4.962;2023-10-08T02:09:38;7.45;;;2.78;;
19903;SDS011;10114;50.970;4.962;2023-10-08T02:12:04;7.35;;;3.00;;
19903;SDS011;10114;50.970;4.962;2023-10-08T02:14:30;10.73;;;2.50;;
19903;SDS011;10114;50.970;4.962;2023-10-08T02:16:57;12.73;;;2.80;;
19903;SDS011;10114;50.970;4.962;2023-10-08T02:19:26;6.82;;;2.85;;
19903;SDS011;10114;50.970;4.962;2023-10-08T02:21:53;9.88;;;2.97;;
19903;SDS011;10114;50.970;4.962;2023-10-08T02:24:19;7.63;;;2.90;;
19903;SDS011;10114;50.970;4.962;2023-10-08T02:26:46;7.45;;;2.83;;
19903;SDS011;10114;50.970;4.962;2023-10-08T02:29:13;8.55;;;2.95;;
19903;SDS011;10114;50.970;4.962;2023-10-08T02:31:40;6.88;;;2.78;;
19903;SDS011;10114;50.970;4.962;2023-10-08T02:34:06;7.43;;;2.40;;
19903;SDS011;10114;50.970;4.962;2023-10-08T02:36:33;9.02;;;2.65;;
19903;SDS011;10114;50.970;4.962;2023-10-08T02:39:01;9.27;;;2.72;;
19903;SDS011;10114;50.970;4.962;2023-10-08T02:41:31;7.13;;;2.28;;
19903;SDS011;10114;50.970;4.962;2023-10-08T02:43:57;9.88;;;2.70;;
19903;SDS011;10114;50.970;4.962;2023-10-08T02:46:24;7.63;;;2.70;;
19903;SDS011;10114;50.970;4.962;2023-10-08T02:48:52;7.15;;;2.80;;
19903;SDS011;10114;50.970;4.962;2023-10-08T02:51:18;7.13;;;2.80;;
19903;SDS011;10114;50.970;4.962;2023-10-08T02:53:46;6.95;;;2.50;;
19903;SDS011;10114;50.970;4.962;2023-10-08T02:56:14;13.52;;;3.05;;
19903;SDS011;10114;50.970;4.962;2023-10-08T02:58:41;7.18;;;2.78;;
19903;SDS011;10114;50.970;4.962;2023-10-08T03:01:08;8.77;;;2.70;;
19903;SDS011;10114;50.970;4.962;2023-10-08T03:03:41;6.57;;;2.58;;
19903;SDS011;10114;50.970;4.962;2023-10-08T03:06:07;11.10;;;3.00;;
19903;SDS011;10114;50.970;4.962;2023-10-08T03:08:39;7.55;;;2.63;;
19903;SDS011;10114;50.970;4.962;2023-10-08T03:11:08;9.10;;;3.10;;
19903;SDS011;10114;50.970;4.962;2023-10-08T03:13:42;9.57;;;2.63;;
19903;SDS011;10114;50.970;4.962;2023-10-08T03:16:11;8.93;;;3.15;;
19903;SDS011;10114;50.970;4.962;2023-10-08T03:18:38;9.80;;;3.03;;
19903;SDS011;10114;50.970;4.962;2023-10-08T03:21:10;8.13;;;3.03;;
19903;SDS011;10114;50.970;4.962;2023-10-08T03:23:45;9.32;;;2.78;;
19903;SDS011;10114;50.970;4.962;2023-10-08T03:26:13;7.93;;;2.60;;
19903;SDS011;10114;50.970;4.962;2023-10-08T03:28:54;6.07;;;2.17;;
19903;SDS011;10114;50.970;4.962;2023-10-08T03:31:23;7.70;;;3.13;;
19903;SDS011;10114;50.970;4.962;2023-10-08T03:34:09;8.10;;;2.55;;
19903;SDS011;10114;50.970;4.962;2023-10-08T03:36:39;9.55;;;3.03;;
19903;SDS011;10114;50.970;4.962;2023-10-08T03:39:15;11.07;;;2.58;;
19903;SDS011;10114;50.970;4.962;2023-10-08T03:41:43;7.43;;;2.70;;
19903;SDS011;10114;50.970;4.962;2023-10-08T03:44:45;14.57;;;3.80;;
19903;SDS011;10114;50.970;4.962;2023-10-08T03:47:16;9.95;;;2.85;;
19903;SDS011;10114;50.970;4.962;2023-10-08T03:49:44;8.90;;;2.72;;
19903;SDS011;10114;50.970;4.962;2023-10-08T03:52:10;8.15;;;2.70;;
19903;SDS011;10114;50.970;4.962;2023-10-08T03:54:38;8.65;;;2.85;;
19903;SDS011;10114;50.970;4.962;2023-10-08T03:57:08;9.50;;;2.85;;
19903;SDS011;10114;50.970;4.962;2023-10-08T03:59:40;8.90;;;3.08;;
19903;SDS011;10114;50.970;4.962;2023-10-08T04:02:07;11.63;;;3.13;;
19903;SDS011;10114;50.970;4.962;2023-10-08T04:04:41;9.13;;;2.80;;
19903;SDS011;10114;50.970;4.962;2023-10-08T04:07:23;9.68;;;3.00;;
19903;SDS011;10114;50.970;4.962;2023-10-08T04:09:52;12.00;;;3.28;;
19903;SDS011;10114;50.970;4.962;2023-10-08T04:12:31;8.63;;;3.20;;
19903;SDS011;10114;50.970;4.962;2023-10-08T04:15:03;8.30;;;2.90;;
19903;SDS011;10114;50.970;4.962;2023-10-08T04:17:33;10.32;;;3.13;;
19903;SDS011;10114;50.970;4.962;2023-10-08T04:20:08;7.68;;;2.90;;
19903;SDS011;10114;50.970;4.962;2023-10-08T04:22:54;10.95;;;3.65;;
19903;SDS011;10114;50.970;4.962;2023-10-08T04:25:21;7.60;;;3.40;;
19903;SDS011;10114;50.970;4.962;2023-10-08T04:27:47;7.35;;;2.95;;
19903;SDS011;10114;50.970;4.962;2023-10-08T04:30:15;7.22;;;3.30;;
19903;SDS011;10114;50.970;4.962;2023-10-08T04:32:41;9.55;;;3.58;;
19903;SDS011;10114;50.970;4.962;2023-10-08T04:35:07;10.50;;;3.67;;
19903;SDS011;10114;50.970;4.962;2023-10-08T04:37:40;15.07;;;3.70;;
19903;SDS011;10114;50.970;4.962;2023-10-08T04:40:06;7.75;;;3.13;;
19903;SDS011;10114;50.970;4.962;2023-10-08T04:42:41;11.50;;;3.28;;
19903;SDS011;10114;50.970;4.962;2023-10-08T04:45:10;10.52;;;3.42;;
19903;SDS011;10114;50.970;4.962;2023-10-08T04:47:40;10.13;;;3.40;;
19903;SDS011;10114;50.970;4.962;2023-10-08T04:50:10;10.73;;;3.75;;
19903;SDS011;10114;50.970;4.962;2023-10-08T04:52:40;11.65;;;3.42;;
19903;SDS011;10114;50.970;4.962;2023-10-08T04:55:23;8.20;;;3.28;;
19903;SDS011;10114;50.970;4.962;2023-10-08T04:57:54;8.98;;;3.03;;
19903;SDS011;10114;50.970;4.962;2023-10-08T05:00:20;10.20;;;3.78;;
19903;SDS011;10114;50.970;4.962;2023-10-08T05:03:06;12.65;;;4.22;;
19903;SDS011;10114;50.970;4.962;2023-10-08T05:05:41;12.55;;;3.38;;
19903;SDS011;10114;50.970;4.962;2023-10-08T05:08:26;9.15;;;3.15;;
19903;SDS011;10114;50.970;4.962;2023-10-08T05:11:09;10.68;;;3.30;;
19903;SDS011;10114;50.970;4.962;2023-10-08T05:14:02;10.80;;;4.35;;
19903;SDS011;10114;50.970;4.962;2023-10-08T05:16:33;10.32;;;3.65;;
19903;SDS011;10114;50.970;4.962;2023-10-08T05:19:22;7.85;;;3.08;;
19903;SDS011;10114;50.970;4.962;2023-10-08T05:22:13;7.53;;;3.00;;
19903;SDS011;10114;50.970;4.962;2023-10-08T05:24:48;8.52;;;3.30;;
19903;SDS011;10114;50.970;4.962;2023-10-08T05:27:37;9.82;;;3.60;;
19903;SDS011;10114;50.970;4.962;2023-10-08T05:30:16;13.30;;;3.70;;
19903;SDS011;10114;50.970;4.962;2023-10-08T05:33:04;8.27;;;3.40;;
19903;SDS011;10114;50.970;4.962;2023-10-08T05:35:50;7.93;;;3.38;;
19903;SDS011;10114;50.970;4.962;2023-10-08T05:38:20;10.25;;;3.75;;
19903;SDS011;10114;50.970;4.962;2023-10-08T05:40:56;11.25;;;3.05;;
19903;SDS011;10114;50.970;4.962;2023-10-08T05:43:42;9.68;;;3.53;;
19903;SDS011;10114;50.970;4.962;2023-10-08T05:46:14;8.15;;;3.42;;
19903;SDS011;10114;50.970;4.962;2023-10-08T05:48:54;8.73;;;3.55;;
19903;SDS011;10114;50.970;4.962;2023-10-08T05:51:33;10.73;;;3.50;;
19903;SDS011;10114;50.970;4.962;2023-10-08T05:54:22;10.38;;;3.83;;
19903;SDS011;10114;50.970;4.962;2023-10-08T05:56:52;10.05;;;3.47;;
19903;SDS011;10114;50.970;4.962;2023-10-08T06:02:28;11.80;;;3.80;;
19903;SDS011;10114;50.970;4.962;2023-10-08T06:04:57;14.80;;;4.05;;
19903;SDS011;10114;50.970;4.962;2023-10-08T06:07:46;8.70;;;3.35;;
19903;SDS011;10114;50.970;4.962;2023-10-08T06:10:18;8.60;;;3.00;;
19903;SDS011;10114;50.970;4.962;2023-10-08T06:13:04;8.25;;;3.10;;
19903;SDS011;10114;50.970;4.962;2023-10-08T06:15:49;8.55;;;4.07;;
19903;SDS011;10114;50.970;4.962;2023-10-08T06:18:16;12.18;;;3.53;;
19903;SDS011;10114;50.970;4.962;2023-10-08T06:20:44;10.02;;;3.90;;
19903;SDS011;10114;50.970;4.962;2023-10-08T06:23:10;7.70;;;3.15;;
19903;SDS011;10114;50.970;4.962;2023-10-08T06:25:38;9.77;;;3.83;;
19903;SDS011;10114;50.970;4.962;2023-10-08T06:28:17;9.02;;;3.42;;
19903;SDS011;10114;50.970;4.962;2023-10-08T06:30:49;10.13;;;3.38;;
19903;SDS011;10114;50.970;4.962;2023-10-08T06:33:18;9.32;;;3.15;;
19903;SDS011;10114;50.970;4.962;2023-10-08T06:35:45;10.65;;;3.17;;
19903;SDS011;10114;50.970;4.962;2023-10-08T06:38:26;10.68;;;3.53;;
19903;SDS011;10114;50.970;4.962;2023-10-08T06:40:54;8.70;;;3.20;;
19903;SDS011;10114;50.970;4.962;2023-10-08T06:43:21;9.82;;;3.33;;
19903;SDS011;10114;50.970;4.962;2023-10-08T06:45:49;7.65;;;3.05;;
19903;SDS011;10114;50.970;4.962;2023-10-08T06:48:23;11.93;;;3.65;;
19903;SDS011;10114;50.970;4.962;2023-10-08T06:50:49;8.13;;;3.05;;
19903;SDS011;10114;50.970;4.962;2023-10-08T06:53:16;10.90;;;3.85;;
19903;SDS011;10114;50.970;4.962;2023-10-08T06:55:46;14.35;;;3.17;;
19903;SDS011;10114;50.970;4.962;2023-10-08T06:58:13;8.18;;;3.53;;
19903;SDS011;10114;50.970;4.962;2023-10-08T07:00:40;9.85;;;2.83;;
19903;SDS011;10114;50.970;4.962;2023-10-08T07:03:16;10.27;;;3.08;;
19903;SDS011;10114;50.970;4.962;2023-10-08T07:05:49;12.25;;;3.75;;
19903;SDS011;10114;50.970;4.962;2023-10-08T07:08:26;8.75;;;3.17;;
19903;SDS011;10114;50.970;4.962;2023-10-08T07:10:52;8.40;;;3.58;;
19903;SDS011;10114;50.970;4.962;2023-10-08T07:13:19;12.70;;;3.72;;
19903;SDS011;10114;50.970;4.962;2023-10-08T07:15:52;8.32;;;3.53;;
19903;SDS011;10114;50.970;4.962;2023-10-08T07:18:18;13.15;;;4.03;;
19903;SDS011;10114;50.970;4.962;2023-10-08T07:20:50;9.98;;;2.88;;
19903;SDS011;10114;50.970;4.962;2023-10-08T07:23:19;11.98;;;3.47;;
19903;SDS011;10114;50.970;4.962;2023-10-08T07:25:53;9.57;;;3.50;;
19903;SDS011;10114;50.970;4.962;2023-10-08T07:28:23;8.25;;;3.65;;
19903;SDS011;10114;50.970;4.962;2023-10-08T07:30:50;9.38;;;3.40;;
19903;SDS011;10114;50.970;4.962;2023-10-08T07:33:17;10.45;;;3.72;;
19903;SDS011;10114;50.970;4.962;2023-10-08T07:35:44;11.43;;;3.30;;
19903;SDS011;10114;50.970;4.962;2023-10-08T07:38:17;8.77;;;3.40;;
19903;SDS011;10114;50.970;4.962;2023-10-08T07:40:43;10.50;;;3.60;;
19903;SDS011;10114;50.970;4.962;2023-10-08T07:43:09;7.68;;;3.70;;
19903;SDS011;10114;50.970;4.962;2023-10-08T07:45:37;10.15;;;3.47;;
19903;SDS011;10114;50.970;4.962;2023-10-08T07:48:03;10.60;;;4.03;;
19903;SDS011;10114;50.970;4.962;2023-10-08T07:50:35;11.10;;;3.70;;
19903;SDS011;10114;50.970;4.962;2023-10-08T07:53:03;17.23;;;4.10;;
19903;SDS011;10114;50.970;4.962;2023-10-08T07:55:29;9.52;;;3.22;;
19903;SDS011;10114;50.970;4.962;2023-10-08T07:57:58;11.05;;;3.80;;
19903;SDS011;10114;50.970;4.962;2023-10-08T08:00:24;10.80;;;3.25;;
19903;SDS011;10114;50.970;4.962;2023-10-08T08:02:55;9.43;;;3.33;;
19903;SDS011;10114;50.970;4.962;2023-10-08T08:05:22;12.52;;;4.32;;
19903;SDS011;10114;50.970;4.962;2023-10-08T08:07:48;10.23;;;3.60;;
19903;SDS011;10114;50.970;4.962;2023-10-08T08:10:14;9.00;;;3.47;;
19903;SDS011;10114;50.970;4.962;2023-10-08T08:12:43;8.45;;;3.50;;
19903;SDS011;10114;50.970;4.962;2023-10-08T08:15:10;10.00;;;4.30;;
19903;SDS011;10114;50.970;4.962;2023-10-08T08:17:43;10.60;;;3.75;;
19903;SDS011;10114;50.970;4.962;2023-10-08T08:20:12;13.40;;;4.05;;
19903;SDS011;10114;50.970;4.962;2023-10-08T08:22:47;11.98;;;4.20;;
19903;SDS011;10114;50.970;4.962;2023-10-08T08:25:19;14.00;;;3.92;;
19903;SDS011;10114;50.970;4.962;2023-10-08T08:28:14;18.40;;;4.38;;
19903;SDS011;10114;50.970;4.962;2023-10-08T08:30:45;11.10;;;4.90;;
19903;SDS011;10114;50.970;4.962;2023-10-08T08:33:12;10.07;;;3.58;;
19903;SDS011;10114;50.970;4.962;2023-10-08T08:35:41;9.40;;;3.40;;
19903;SDS011;10114;50.970;4.962;2023-10-08T08:38:10;14.50;;;4.63;;
19903;SDS011;10114;50.970;4.962;2023-10-08T08:40:37;11.50;;;3.90;;
19903;SDS011;10114;50.970;4.962;2023-10-08T08:43:04;12.80;;;4.30;;
19903;SDS011;10114;50.970;4.962;2023-10-08T08:45:31;13.07;;;4.07;;
19903;SDS011;10114;50.970;4.962;2023-10-08T08:47:58;11.52;;;4.00;;
19903;SDS011;10114;50.970;4.962;2023-10-08T08:50:25;13.10;;;4.18;;
19903;SDS011;10114;50.970;4.962;2023-10-08T08:52:51;11.00;;;4.20;;
19903;SDS011;10114;50.970;4.962;2023-10-08T08:55:18;15.43;;;5.05;;
19903;SDS011;10114;50.970;4.962;2023-10-08T08:57:49;19.38;;;5.00;;
19903;SDS011;10114;50.970;4.962;2023-10-08T09:00:17;15.18;;;4.95;;
19903;SDS011;10114;50.970;4.962;2023-10-08T09:02:46;13.25;;;4.72;;
19903;SDS011;10114;50.970;4.962;2023-10-08T09:05:14;14.98;;;4.78;;
19903;SDS011;10114;50.970;4.962;2023-10-08T09:08:00;13.65;;;4.40;;
19903;SDS011;10114;50.970;4.962;2023-10-08T09:10:31;15.47;;;5.00;;
19903;SDS011;10114;50.970;4.962;2023-10-08T09:13:18;12.32;;;4.57;;
19903;SDS011;10114;50.970;4.962;2023-10-08T09:15:46;14.10;;;4.97;;
19903;SDS011;10114;50.970;4.962;2023-10-08T09:18:12;13.75;;;4.90;;
19903;SDS011;10114;50.970;4.962;2023-10-08T09:20:39;12.55;;;4.55;;
19903;SDS011;10114;50.970;4.962;2023-10-08T09:23:15;12.93;;;4.93;;
19903;SDS011;10114;50.970;4.962;2023-10-08T09:25:47;14.85;;;5.90;;
19903;SDS011;10114;50.970;4.962;2023-10-08T09:28:18;15.90;;;5.15;;
19903;SDS011;10114;50.970;4.962;2023-10-08T09:30:44;17.95;;;5.18;;
19903;SDS011;10114;50.970;4.962;2023-10-08T09:33:11;11.65;;;5.93;;
19903;SDS011;10114;50.970;4.962;2023-10-08T09:35:37;15.85;;;4.68;;
19903;SDS011;10114;50.970;4.962;2023-10-08T09:38:04;13.35;;;4.63;;
19903;SDS011;10114;50.970;4.962;2023-10-08T09:40:33;17.92;;;6.10;;
19903;SDS011;10114;50.970;4.962;2023-10-08T09:43:00;15.63;;;4.40;;
19903;SDS011;10114;50.970;4.962;2023-10-08T09:45:28;22.35;;;5.40;;
19903;SDS011;10114;50.970;4.962;2023-10-08T09:47:55;14.85;;;4.70;;
19903;SDS011;10114;50.970;4.962;2023-10-08T09:50:22;17.02;;;5.45;;
19903;SDS011;10114;50.970;4.962;2023-10-08T09:55:25;14.95;;;4.75;;
19903;SDS011;10114;50.970;4.962;2023-10-08T09:57:52;12.35;;;4.70;;
19903;SDS011;10114;50.970;4.962;2023-10-08T10:00:20;14.40;;;5.05;;
19903;SDS011;10114;50.970;4.962;2023-10-08T10:02:56;12.13;;;5.25;;
19903;SDS011;10114;50.970;4.962;2023-10-08T10:05:27;11.75;;;5.05;;
19903;SDS011;10114;50.970;4.962;2023-10-08T10:07:57;14.50;;;4.78;;
19903;SDS011;10114;50.970;4.962;2023-10-08T10:10:27;14.80;;;5.35;;
19903;SDS011;10114;50.970;4.962;2023-10-08T10:12:59;14.27;;;5.47;;
19903;SDS011;10114;50.970;4.962;2023-10-08T10:15:25;14.80;;;5.45;;
19903;SDS011;10114;50.970;4.962;2023-10-08T10:17:51;14.55;;;5.85;;
19903;SDS011;10114;50.970;4.962;2023-10-08T10:20:17;16.08;;;5.78;;
19903;SDS011;10114;50.970;4.962;2023-10-08T10:22:46;12.80;;;5.10;;
19903;SDS011;10114;50.970;4.962;2023-10-08T10:25:15;12.38;;;5.50;;
19903;SDS011;10114;50.970;4.962;2023-10-08T10:30:24;12.70;;;5.88;;
19903;SDS011;10114;50.970;4.962;2023-10-08T10:32:52;18.20;;;6.03;;
19903;SDS011;10114;50.970;4.962;2023-10-08T10:35:18;14.93;;;5.22;;
19903;SDS011;10114;50.970;4.962;2023-10-08T10:37:48;16.98;;;6.10;;
19903;SDS011;10114;50.970;4.962;2023-10-08T10:40:23;13.27;;;5.90;;
19903;SDS011;10114;50.970;4.962;2023-10-08T10:43:07;21.08;;;7.07;;
19903;SDS011;10114;50.970;4.962;2023-10-08T10:45:41;13.43;;;6.13;;
19903;SDS011;10114;50.970;4.962;2023-10-08T10:48:09;15.90;;;6.50;;
19903;SDS011;10114;50.970;4.962;2023-10-08T10:50:45;19.92;;;6.47;;
19903;SDS011;10114;50.970;4.962;2023-10-08T10:53:29;15.88;;;6.60;;
19903;SDS011;10114;50.970;4.962;2023-10-08T10:55:58;15.02;;;6.30;;
19903;SDS011;10114;50.970;4.962;2023-10-08T10:58:34;17.63;;;5.85;;
19903;SDS011;10114;50.970;4.962;2023-10-08T11:01:05;17.52;;;6.38;;
19903;SDS011;10114;50.970;4.962;2023-10-08T11:03:52;19.30;;;6.15;;
19903;SDS011;10114;50.970;4.962;2023-10-08T11:06:18;14.43;;;5.50;;
19903;SDS011;10114;50.970;4.962;2023-10-08T11:08:51;19.98;;;6.13;;
19903;SDS011;10114;50.970;4.962;2023-10-08T11:11:18;15.68;;;6.25;;
19903;SDS011;10114;50.970;4.962;2023-10-08T11:13:44;15.63;;;5.82;;
19903;SDS011;10114;50.970;4.962;2023-10-08T11:16:17;21.30;;;6.88;;
19903;SDS011;10114;50.970;4.962;2023-10-08T11:18:46;15.10;;;5.45;;
19903;SDS011;10114;50.970;4.962;2023-10-08T11:21:15;16.75;;;6.25;;
19903;SDS011;10114;50.970;4.962;2023-10-08T11:23:46;15.77;;;5.82;;
19903;SDS011;10114;50.970;4.962;2023-10-08T11:26:17;21.77;;;6.15;;
19903;SDS011;10114;50.970;4.962;2023-10-08T11:28:44;18.52;;;6.00;;
19903;SDS011;10114;50.970;4.962;2023-10-08T11:31:13;16.73;;;6.05;;
19903;SDS011;10114;50.970;4.962;2023-10-08T11:33:43;15.55;;;6.53;;
19903;SDS011;10114;50.970;4.962;2023-10-08T11:36:19;17.95;;;6.35;;
19903;SDS011;10114;50.970;4.962;2023-10-08T11:38:49;17.98;;;6.03;;
19903;SDS011;10114;50.970;4.962;2023-10-08T11:41:18;15.05;;;5.38;;
19903;SDS011;10114;50.970;4.962;2023-10-08T11:43:51;13.68;;;5.55;;
19903;SDS011;10114;50.970;4.962;2023-10-08T11:46:28;16.17;;;6.05;;
19903;SDS011;10114;50.970;4.962;2023-10-08T11:49:04;13.88;;;5.80;;
19903;SDS011;10114;50.970;4.962;2023-10-08T11:51:33;13.27;;;5.70;;
19903;SDS011;10114;50.970;4.962;2023-10-08T11:54:03;17.98;;;5.93;;
19903;SDS011;10114;50.970;4.962;2023-10-08T11:56:31;14.82;;;6.03;;
19903;SDS011;10114;50.970;4.962;2023-10-08T11:59:03;15.35;;;5.43;;
19903;SDS011;10114;50.970;4.962;2023-10-08T12:01:30;19.30;;;6.32;;
19903;SDS011;10114;50.970;4.962;2023-10-08T12:04:00;17.67;;;6.10;;
19903;SDS011;10114;50.970;4.962;2023-10-08T12:06:26;15.00;;;5.90;;
19903;SDS011;10114;50.970;4.962;2023-10-08T12:08:56;19.48;;;5.88;;
19903;SDS011;10114;50.970;4.962;2023-10-08T12:11:24;18.75;;;6.72;;
19903;SDS011;10114;50.970;4.962;2023-10-08T12:13:56;18.38;;;5.78;;
19903;SDS011;10114;50.970;4.962;2023-10-08T12:16:24;18.10;;;6.78;;
19903;SDS011;10114;50.970;4.962;2023-10-08T12:18:54;20.15;;;8.93;;
19903;SDS011;10114;50.970;4.962;2023-10-08T12:21:27;17.48;;;5.93;;
19903;SDS011;10114;50.970;4.962;2023-10-08T12:23:59;14.38;;;5.25;;
19903;SDS011;10114;50.970;4.962;2023-10-08T12:26:30;13.18;;;5.45;;
19903;SDS011;10114;50.970;4.962;2023-10-08T12:28:56;18.73;;;6.50;;
19903;SDS011;10114;50.970;4.962;2023-10-08T12:31:22;21.35;;;7.10;;
19903;SDS011;10114;50.970;4.962;2023-10-08T12:33:52;28.25;;;6.07;;
19903;SDS011;10114;50.970;4.962;2023-10-08T12:36:28;14.57;;;5.68;;
19903;SDS011;10114;50.970;4.962;2023-10-08T12:39:01;14.75;;;5.55;;
19903;SDS011;10114;50.970;4.962;2023-10-08T12:41:39;16.13;;;5.60;;
19903;SDS011;10114;50.970;4.962;2023-10-08T12:44:06;19.50;;;5.50;;
19903;SDS011;10114;50.970;4.962;2023-10-08T12:46:33;12.32;;;5.78;;
19903;SDS011;10114;50.970;4.962;2023-10-08T12:48:59;16.95;;;5.43;;
19903;SDS011;10114;50.970;4.962;2023-10-08T12:51:26;15.05;;;5.32;;
19903;SDS011;10114;50.970;4.962;2023-10-08T12:53:57;17.17;;;5.95;;
19903;SDS011;10114;50.970;4.962;2023-10-08T12:56:31;15.63;;;5.55;;
19903;SDS011;10114;50.970;4.962;2023-10-08T12:59:01;15.05;;;5.13;;
19903;SDS011;10114;50.970;4.962;2023-10-08T13:01:34;15.05;;;5.80;;
19903;SDS011;10114;50.970;4.962;2023-10-08T13:04:02;15.15;;;5.28;;
19903;SDS011;10114;50.970;4.962;2023-10-08T13:06:32;16.02;;;5.05;;
19903;SDS011;10114;50.970;4.962;2023-10-08T13:08:59;15.05;;;4.82;;
19903;SDS011;10114;50.970;4.962;2023-10-08T13:11:27;13.30;;;5.43;;
19903;SDS011;10114;50.970;4.962;2023-10-08T13:13:59;16.23;;;5.22;;
19903;SDS011;10114;50.970;4.962;2023-10-08T13:16:26;15.95;;;5.32;;
19903;SDS011;10114;50.970;4.962;2023-10-08T13:19:02;17.42;;;5.60;;
19903;SDS011;10114;50.970;4.962;2023-10-08T13:21:29;15.18;;;6.00;;
19903;SDS011;10114;50.970;4.962;2023-10-08T13:23:57;17.20;;;5.35;;
19903;SDS011;10114;50.970;4.962;2023-10-08T13:26:27;15.38;;;5.18;;
19903;SDS011;10114;50.970;4.962;2023-10-08T13:28:56;15.57;;;5.32;;
19903;SDS011;10114;50.970;4.962;2023-10-08T13:31:23;17.75;;;5.53;;
19903;SDS011;10114;50.970;4.962;2023-10-08T13:33:50;17.50;;;5.70;;
19903;SDS011;10114;50.970;4.962;2023-10-08T13:36:17;15.43;;;4.90;;
19903;SDS011;10114;50.970;4.962;2023-10-08T13:38:43;15.15;;;5.90;;
19903;SDS011;10114;50.970;4.962;2023-10-08T13:41:11;11.57;;;4.30;;
19903;SDS011;10114;50.970;4.962;2023-10-08T13:43:41;15.95;;;4.80;;
19903;SDS011;10114;50.970;4.962;2023-10-08T13:46:10;16.90;;;4.78;;
19903;SDS011;10114;50.970;4.962;2023-10-08T13:48:40;15.48;;;5.38;;
19903;SDS011;10114;50.970;4.962;2023-10-08T13:51:07;14.25;;;5.30;;
19903;SDS011;10114;50.970;4.962;2023-10-08T13:53:47;13.95;;;5.15;;
19903;SDS011;10114;50.970;4.962;2023-10-08T13:56:17;14.90;;;5.15;;
19903;SDS011;10114;50.970;4.962;2023-10-08T13:58:44;12.95;;;5.35;;
19903;SDS011;10114;50.970;4.962;2023-10-08T14:01:15;18.63;;;5.70;;
19903;SDS011;10114;50.970;4.962;2023-10-08T14:03:47;18.05;;;5.28;;
19903;SDS011;10114;50.970;4.962;2023-10-08T14:06:17;18.52;;;5.22;;
19903;SDS011;10114;50.970;4.962;2023-10-08T14:08:43;13.57;;;4.95;;
19903;SDS011;10114;50.970;4.962;2023-10-08T14:11:16;13.07;;;5.30;;
19903;SDS011;10114;50.970;4.962;2023-10-08T14:13:43;17.08;;;4.97;;
19903;SDS011;10114;50.970;4.962;2023-10-08T14:16:09;16.65;;;5.28;;
19903;SDS011;10114;50.970;4.962;2023-10-08T14:18:36;13.55;;;4.70;;
19903;SDS011;10114;50.970;4.962;2023-10-08T14:21:13;20.80;;;5.07;;
19903;SDS011;10114;50.970;4.962;2023-10-08T14:23:40;16.80;;;5.75;;
19903;SDS011;10114;50.970;4.962;2023-10-08T14:26:07;15.68;;;4.95;;
19903;SDS011;10114;50.970;4.962;2023-10-08T14:28:34;14.07;;;5.28;;
19903;SDS011;10114;50.970;4.962;2023-10-08T14:31:15;13.52;;;4.50;;
19903;SDS011;10114;50.970;4.962;2023-10-08T14:33:42;11.32;;;4.78;;
19903;SDS011;10114;50.970;4.962;2023-10-08T14:36:21;11.75;;;4.25;;
19903;SDS011;10114;50.970;4.962;2023-10-08T14:39:06;15.85;;;5.50;;
19903;SDS011;10114;50.970;4.962;2023-10-08T14:41:50;15.20;;;4.55;;
19903;SDS011;10114;50.970;4.962;2023-10-08T14:44:35;15.05;;;5.15;;
19903;SDS011;10114;50.970;4.962;2023-10-08T14:47:02;11.57;;;4.72;;
19903;SDS011;10114;50.970;4.962;2023-10-08T14:49:29;13.82;;;5.07;;
19903;SDS011;10114;50.970;4.962;2023-10-08T14:51:55;14.48;;;5.68;;
19903;SDS011;10114;50.970;4.962;2023-10-08T14:54:22;14.23;;;5.50;;
19903;SDS011;10114;50.970;4.962;2023-10-08T14:56:49;15.20;;;6.30;;
19903;SDS011;10114;50.970;4.962;2023-10-08T14:59:15;14.13;;;5.18;;
19903;SDS011;10114;50.970;4.962;2023-10-08T15:01:43;16.83;;;5.53;;
19903;SDS011;10114;50.970;4.962;2023-10-08T15:04:09;10.98;;;4.57;;
19903;SDS011;10114;50.970;4.962;2023-10-08T15:06:37;17.15;;;5.35;;
19903;SDS011;10114;50.970;4.962;2023-10-08T15:09:04;15.60;;;5.45;;
19903;SDS011;10114;50.970;4.962;2023-10-08T15:11:32;14.55;;;5.20;;